Helsinge, Denmark
Current Conditions -  °F | °C
As of 9:20 AM on Thursday 27 Nov 2014 (Local Time) from EKRK Reporting Station
Scattered Clouds Scattered Clouds  
Wind Chill: 36°   Ceiling: Unl
Heat Index: 43°   Visibility: 6mi
Dew Point: 34°   Wind: 14mph
Humidity: 70%   Direction: 140°SE
Pressure: 30.12"   Gusts: NA
Location:  56.02°N, 12.2°E
Report Text: EKRK 270820Z AUTO 14012KT 9999NDV FEW032/// SCT037///06/01 Q1020
Loading
Personal Weather Stations






























Interactive Weather Map New forecast layout! Learn more

10-Day Weather Forecast

Advertisements
Track Severe Weather on mobile